SWA4347 KSMF-KLGB
Flight info
| Callsign | SWA4347 |
|---|---|
| Flight time | 1h 7m |
| Altitude | 37000 |
| Route | FTHIL3 FRA REBRG PCIFC3 |
| Aircraft | B738/M-SDE2E3FGHIRWXY/LB1 |
Departure
| Time | 2026-05-05 00:36 |
|---|---|
| Airport | Sacramento International Airport (KSMF) |
Arrival
| Time | 2026-05-05 01:43 |
|---|---|
| Airport | Long Beach International Airport (KLGB) |
| Time | Latitude | Longitude | Altitude | Speed | Heading |
|---|---|---|---|---|---|
| 2026-05-05 00:11 | 38.69632 | -121.59462 | 22 ft | 0 kts | 180° |
| 2026-05-05 00:22 | 38.69639 | -121.59462 | 24 ft | 0 kts | 180° |
| 2026-05-05 00:22 | 38.69640 | -121.59462 | 24 ft | 0 kts | 180° |
| 2026-05-05 00:24 | 38.69645 | -121.59462 | 25 ft | 4 kts | 181° |
| 2026-05-05 00:24 | 38.69672 | -121.59460 | 24 ft | 4 kts | 185° |
| 2026-05-05 00:24 | 38.69690 | -121.59456 | 24 ft | 2 kts | 219° |
| 2026-05-05 00:25 | 38.69696 | -121.59444 | 22 ft | 2 kts | 259° |
| 2026-05-05 00:25 | 38.69697 | -121.59430 | 22 ft | 2 kts | 268° |
| 2026-05-05 00:25 | 38.69698 | -121.59424 | 22 ft | 0 kts | 269° |
| 2026-05-05 00:27 | 38.69698 | -121.59428 | 22 ft | 2 kts | 272° |
| 2026-05-05 00:28 | 38.69698 | -121.59446 | 22 ft | 2 kts | 269° |
| 2026-05-05 00:28 | 38.69698 | -121.59474 | 22 ft | 4 kts | 272° |
| 2026-05-05 00:28 | 38.69699 | -121.59516 | 24 ft | 5 kts | 271° |
| 2026-05-05 00:28 | 38.69700 | -121.59571 | 23 ft | 7 kts | 270° |
| 2026-05-05 00:29 | 38.69699 | -121.59639 | 22 ft | 8 kts | 270° |
| 2026-05-05 00:29 | 38.69701 | -121.59721 | 22 ft | 10 kts | 274° |
| 2026-05-05 00:29 | 38.69703 | -121.59814 | 22 ft | 11 kts | 281° |
| 2026-05-05 00:29 | 38.69764 | -121.59862 | 22 ft | 11 kts | 356° |
| 2026-05-05 00:30 | 38.69846 | -121.59861 | 22 ft | 12 kts | 1° |
| 2026-05-05 00:30 | 38.69930 | -121.59859 | 22 ft | 13 kts | 1° |
| 2026-05-05 00:30 | 38.70023 | -121.59857 | 22 ft | 14 kts | 1° |
| 2026-05-05 00:30 | 38.70122 | -121.59856 | 25 ft | 15 kts | 359° |
| 2026-05-05 00:31 | 38.70227 | -121.59847 | 22 ft | 15 kts | 2° |
| 2026-05-05 00:31 | 38.70333 | -121.59853 | 22 ft | 15 kts | 1° |
| 2026-05-05 00:31 | 38.70442 | -121.59851 | 24 ft | 16 kts | 2° |
| 2026-05-05 00:31 | 38.70552 | -121.59849 | 22 ft | 16 kts | 359° |
| 2026-05-05 00:32 | 38.70666 | -121.59848 | 22 ft | 17 kts | 358° |
| 2026-05-05 00:32 | 38.70717 | -121.59960 | 22 ft | 16 kts | 271° |
| 2026-05-05 00:32 | 38.70718 | -121.59982 | 22 ft | 0 kts | 271° |
| 2026-05-05 00:33 | 38.70718 | -121.59983 | 22 ft | 2 kts | 270° |
| 2026-05-05 00:33 | 38.70717 | -121.60040 | 22 ft | 10 kts | 266° |
| 2026-05-05 00:34 | 38.70662 | -121.60109 | 24 ft | 13 kts | 188° |
| 2026-05-05 00:34 | 38.70629 | -121.60111 | 24 ft | 0 kts | 181° |
| 2026-05-05 00:35 | 38.70470 | -121.60114 | 28 ft | 63 kts | 180° |
| 2026-05-05 00:35 | 38.69744 | -121.60126 | 24 ft | 143 kts | 180° |
| 2026-05-05 00:35 | 38.68551 | -121.60176 | 272 ft | 192 kts | 184° |
| 2026-05-05 00:36 | 38.67281 | -121.60298 | 1760 ft | 173 kts | 186° |
| 2026-05-05 00:36 | 38.66211 | -121.60671 | 3114 ft | 153 kts | 216° |
| 2026-05-05 00:36 | 38.65262 | -121.61399 | 3766 ft | 169 kts | 195° |
| 2026-05-05 00:36 | 38.64077 | -121.61450 | 4558 ft | 174 kts | 180° |
| 2026-05-05 00:37 | 38.62843 | -121.61382 | 5357 ft | 179 kts | 180° |
| 2026-05-05 00:37 | 38.61555 | -121.61333 | 5965 ft | 199 kts | 185° |
| 2026-05-05 00:37 | 38.60053 | -121.61580 | 6078 ft | 238 kts | 189° |
| 2026-05-05 00:37 | 38.58329 | -121.61845 | 6604 ft | 252 kts | 182° |
| 2026-05-05 00:38 | 38.56626 | -121.61810 | 7754 ft | 240 kts | 168° |
| 2026-05-05 00:38 | 38.55181 | -121.60847 | 8626 ft | 236 kts | 130° |
| 2026-05-05 00:38 | 38.54398 | -121.59073 | 9580 ft | 227 kts | 115° |
| 2026-05-05 00:38 | 38.53715 | -121.57278 | 10423 ft | 222 kts | 115° |
| 2026-05-05 00:39 | 38.53046 | -121.55561 | 11258 ft | 215 kts | 115° |
| 2026-05-05 00:39 | 38.52381 | -121.53875 | 11932 ft | 219 kts | 117° |
| 2026-05-05 00:39 | 38.51468 | -121.52092 | 11850 ft | 258 kts | 124° |
| 2026-05-05 00:39 | 38.50475 | -121.50013 | 11817 ft | 290 kts | 116° |
| 2026-05-05 00:40 | 38.49587 | -121.47687 | 11939 ft | 293 kts | 114° |
| 2026-05-05 00:40 | 38.48716 | -121.45327 | 12063 ft | 294 kts | 114° |
| 2026-05-05 00:40 | 38.47831 | -121.42971 | 12191 ft | 294 kts | 115° |
| 2026-05-05 00:40 | 38.46929 | -121.40627 | 12319 ft | 295 kts | 115° |
| 2026-05-05 00:41 | 38.46010 | -121.38290 | 12419 ft | 297 kts | 116° |
| 2026-05-05 00:41 | 38.45068 | -121.35931 | 12360 ft | 297 kts | 116° |
| 2026-05-05 00:41 | 38.44093 | -121.33632 | 12461 ft | 293 kts | 118° |
| 2026-05-05 00:41 | 38.43121 | -121.31350 | 12756 ft | 294 kts | 117° |
| 2026-05-05 00:42 | 38.42185 | -121.29042 | 13053 ft | 299 kts | 116° |
| 2026-05-05 00:42 | 38.41244 | -121.26699 | 13340 ft | 301 kts | 116° |
| 2026-05-05 00:42 | 38.40286 | -121.24328 | 13628 ft | 301 kts | 116° |
| 2026-05-05 00:42 | 38.39303 | -121.21910 | 13788 ft | 318 kts | 117° |
| 2026-05-05 00:43 | 38.38247 | -121.19321 | 13965 ft | 341 kts | 117° |
| 2026-05-05 00:43 | 38.37114 | -121.16555 | 14131 ft | 363 kts | 117° |
| 2026-05-05 00:43 | 38.35908 | -121.13622 | 14346 ft | 381 kts | 117° |
| 2026-05-05 00:43 | 38.34678 | -121.10638 | 14898 ft | 387 kts | 116° |
| 2026-05-05 00:44 | 38.33421 | -121.07602 | 15663 ft | 388 kts | 116° |
| 2026-05-05 00:44 | 38.32158 | -121.04562 | 16397 ft | 389 kts | 116° |
| 2026-05-05 00:44 | 38.30891 | -121.01520 | 17083 ft | 392 kts | 116° |
| 2026-05-05 00:44 | 38.29605 | -120.98435 | 17745 ft | 395 kts | 115° |
| 2026-05-05 00:45 | 38.28313 | -120.95338 | 18390 ft | 398 kts | 115° |
| 2026-05-05 00:45 | 38.27012 | -120.92223 | 18918 ft | 401 kts | 115° |
| 2026-05-05 00:45 | 38.25701 | -120.89086 | 19022 ft | 401 kts | 115° |
| 2026-05-05 00:45 | 38.24387 | -120.85948 | 19046 ft | 403 kts | 115° |
| 2026-05-05 00:46 | 38.23083 | -120.82833 | 19049 ft | 403 kts | 115° |
| 2026-05-05 00:46 | 38.21746 | -120.79642 | 19067 ft | 406 kts | 115° |
| 2026-05-05 00:46 | 38.20427 | -120.76496 | 19474 ft | 410 kts | 116° |
| 2026-05-05 00:46 | 38.19086 | -120.73301 | 20156 ft | 409 kts | 115° |
| 2026-05-05 00:47 | 38.17747 | -120.70120 | 20775 ft | 410 kts | 116° |
| 2026-05-05 00:47 | 38.16399 | -120.66918 | 21302 ft | 413 kts | 115° |
| 2026-05-05 00:47 | 38.15035 | -120.63678 | 21794 ft | 416 kts | 115° |
| 2026-05-05 00:47 | 38.13665 | -120.60427 | 22269 ft | 420 kts | 115° |
| 2026-05-05 00:48 | 38.12281 | -120.57147 | 22750 ft | 423 kts | 115° |
| 2026-05-05 00:48 | 38.10888 | -120.53847 | 23233 ft | 425 kts | 115° |
| 2026-05-05 00:48 | 38.09487 | -120.50528 | 23688 ft | 428 kts | 115° |
| 2026-05-05 00:48 | 38.08075 | -120.47188 | 24091 ft | 430 kts | 115° |
| 2026-05-05 00:49 | 38.06656 | -120.43845 | 24541 ft | 430 kts | 115° |
| 2026-05-05 00:49 | 38.05169 | -120.40541 | 24977 ft | 433 kts | 120° |
| 2026-05-05 00:49 | 38.03483 | -120.37425 | 25383 ft | 435 kts | 122° |
| 2026-05-05 00:49 | 38.01680 | -120.34322 | 25753 ft | 437 kts | 123° |
| 2026-05-05 00:50 | 37.99872 | -120.31216 | 26125 ft | 439 kts | 122° |
| 2026-05-05 00:50 | 37.98088 | -120.28074 | 26506 ft | 439 kts | 122° |
| 2026-05-05 00:50 | 37.96321 | -120.24912 | 26884 ft | 440 kts | 121° |
| 2026-05-05 00:50 | 37.94417 | -120.21865 | 27228 ft | 447 kts | 131° |
| 2026-05-05 00:51 | 37.91908 | -120.19468 | 27552 ft | 457 kts | 144° |
| 2026-05-05 00:51 | 37.89159 | -120.17425 | 27911 ft | 459 kts | 145° |
| 2026-05-05 00:51 | 37.86383 | -120.15421 | 28226 ft | 461 kts | 146° |
| 2026-05-05 00:51 | 37.83622 | -120.13433 | 28556 ft | 461 kts | 145° |
| 2026-05-05 00:52 | 37.80841 | -120.11416 | 29038 ft | 458 kts | 145° |
| 2026-05-05 00:52 | 37.78093 | -120.09405 | 29562 ft | 455 kts | 144° |
| 2026-05-05 00:52 | 37.75360 | -120.07389 | 30003 ft | 454 kts | 144° |
| 2026-05-05 00:52 | 37.72647 | -120.05378 | 30320 ft | 455 kts | 145° |
| 2026-05-05 00:53 | 37.69905 | -120.03340 | 30571 ft | 456 kts | 146° |
| 2026-05-05 00:53 | 37.67164 | -120.01301 | 30794 ft | 458 kts | 146° |
| 2026-05-05 00:53 | 37.64409 | -119.99256 | 31061 ft | 459 kts | 147° |
| 2026-05-05 00:53 | 37.61658 | -119.97215 | 31369 ft | 459 kts | 147° |
| 2026-05-05 00:54 | 37.58901 | -119.95174 | 31660 ft | 460 kts | 148° |
| 2026-05-05 00:54 | 37.56172 | -119.93155 | 31914 ft | 461 kts | 148° |
| 2026-05-05 00:54 | 37.53406 | -119.91110 | 32183 ft | 461 kts | 149° |
| 2026-05-05 00:54 | 37.50641 | -119.89068 | 32475 ft | 461 kts | 149° |
| 2026-05-05 00:55 | 37.47872 | -119.87025 | 32775 ft | 461 kts | 149° |
| 2026-05-05 00:55 | 37.45095 | -119.84977 | 33093 ft | 461 kts | 150° |
| 2026-05-05 00:55 | 37.42333 | -119.82942 | 33387 ft | 461 kts | 150° |
| 2026-05-05 00:55 | 37.39566 | -119.80906 | 33624 ft | 462 kts | 151° |
| 2026-05-05 00:56 | 37.36808 | -119.78877 | 33851 ft | 463 kts | 151° |
| 2026-05-05 00:56 | 37.34034 | -119.76837 | 34114 ft | 463 kts | 152° |
| 2026-05-05 00:56 | 37.31249 | -119.74791 | 34373 ft | 462 kts | 152° |
| 2026-05-05 00:56 | 37.28479 | -119.72756 | 34641 ft | 461 kts | 152° |
| 2026-05-05 00:57 | 37.25708 | -119.70723 | 34871 ft | 461 kts | 152° |
| 2026-05-05 00:57 | 37.22938 | -119.68691 | 35093 ft | 461 kts | 153° |
| 2026-05-05 00:57 | 37.20169 | -119.66660 | 35337 ft | 461 kts | 153° |
| 2026-05-05 00:57 | 37.17402 | -119.64630 | 35591 ft | 460 kts | 153° |
| 2026-05-05 00:58 | 37.14678 | -119.62640 | 35843 ft | 459 kts | 154° |
| 2026-05-05 00:58 | 37.11891 | -119.60693 | 36083 ft | 456 kts | 160° |
| 2026-05-05 00:58 | 37.08889 | -119.59560 | 36295 ft | 448 kts | 176° |
| 2026-05-05 00:58 | 37.05798 | -119.59392 | 36533 ft | 443 kts | 184° |
| 2026-05-05 00:59 | 37.02720 | -119.59467 | 36768 ft | 442 kts | 185° |
| 2026-05-05 00:59 | 36.99656 | -119.59586 | 37021 ft | 440 kts | 185° |
| 2026-05-05 00:59 | 36.96580 | -119.59705 | 37009 ft | 443 kts | 185° |
| 2026-05-05 01:00 | 36.90429 | -119.59889 | 37029 ft | 440 kts | 185° |
| 2026-05-05 01:00 | 36.84377 | -119.60013 | 37030 ft | 437 kts | 185° |
| 2026-05-05 01:01 | 36.78326 | -119.60118 | 37032 ft | 435 kts | 185° |
| 2026-05-05 01:01 | 36.72247 | -119.60224 | 37033 ft | 437 kts | 185° |
| 2026-05-05 01:02 | 36.66145 | -119.60330 | 37033 ft | 439 kts | 185° |
| 2026-05-05 01:02 | 36.60039 | -119.60436 | 37031 ft | 439 kts | 185° |
| 2026-05-05 01:03 | 36.53982 | -119.60541 | 37016 ft | 438 kts | 185° |
| 2026-05-05 01:03 | 36.47887 | -119.60647 | 37015 ft | 437 kts | 185° |
| 2026-05-05 01:04 | 36.41817 | -119.60751 | 37015 ft | 436 kts | 185° |
| 2026-05-05 01:04 | 36.32738 | -119.60908 | 37020 ft | 434 kts | 185° |
| 2026-05-05 01:05 | 36.26708 | -119.61011 | 37019 ft | 433 kts | 186° |
| 2026-05-05 01:05 | 36.20736 | -119.61112 | 37020 ft | 431 kts | 186° |
| 2026-05-05 01:06 | 36.14729 | -119.61213 | 37016 ft | 430 kts | 186° |
| 2026-05-05 01:06 | 36.08791 | -119.61310 | 37014 ft | 429 kts | 186° |
| 2026-05-05 01:07 | 36.02822 | -119.61406 | 37009 ft | 428 kts | 186° |
| 2026-05-05 01:07 | 35.96883 | -119.61614 | 37009 ft | 423 kts | 192° |
| 2026-05-05 01:08 | 35.91100 | -119.62785 | 37006 ft | 421 kts | 195° |
| 2026-05-05 01:08 | 35.85382 | -119.64071 | 37001 ft | 421 kts | 194° |
| 2026-05-05 01:09 | 35.79606 | -119.65276 | 37000 ft | 421 kts | 194° |
| 2026-05-05 01:09 | 35.73833 | -119.66438 | 37001 ft | 421 kts | 194° |
| 2026-05-05 01:10 | 35.68040 | -119.67536 | 36983 ft | 424 kts | 187° |
| 2026-05-05 01:10 | 35.65077 | -119.67315 | 37016 ft | 432 kts | 175° |
| 2026-05-05 01:10 | 35.62168 | -119.66201 | 37026 ft | 442 kts | 163° |
| 2026-05-05 01:11 | 35.56584 | -119.63107 | 37004 ft | 444 kts | 162° |
| 2026-05-05 01:11 | 35.50974 | -119.59930 | 36990 ft | 444 kts | 163° |
| 2026-05-05 01:12 | 35.45359 | -119.56793 | 36987 ft | 443 kts | 163° |
| 2026-05-05 01:12 | 35.39742 | -119.53690 | 36987 ft | 442 kts | 163° |
| 2026-05-05 01:13 | 35.34165 | -119.50624 | 36982 ft | 441 kts | 163° |
| 2026-05-05 01:13 | 35.28567 | -119.47551 | 36982 ft | 440 kts | 164° |
| 2026-05-05 01:14 | 35.22973 | -119.44483 | 36986 ft | 440 kts | 164° |
| 2026-05-05 01:14 | 35.17420 | -119.41442 | 36979 ft | 439 kts | 164° |
| 2026-05-05 01:15 | 35.11844 | -119.38392 | 36986 ft | 439 kts | 164° |
| 2026-05-05 01:15 | 35.06281 | -119.35354 | 36975 ft | 438 kts | 164° |
| 2026-05-05 01:16 | 35.00718 | -119.32320 | 36976 ft | 437 kts | 164° |
| 2026-05-05 01:16 | 34.95173 | -119.29299 | 36980 ft | 437 kts | 164° |
| 2026-05-05 01:17 | 34.89622 | -119.26278 | 36738 ft | 436 kts | 164° |
| 2026-05-05 01:17 | 34.86861 | -119.24775 | 36229 ft | 431 kts | 165° |
| 2026-05-05 01:17 | 34.84143 | -119.23293 | 35697 ft | 425 kts | 165° |
| 2026-05-05 01:18 | 34.81473 | -119.21843 | 35023 ft | 427 kts | 166° |
| 2026-05-05 01:18 | 34.78762 | -119.20373 | 34379 ft | 428 kts | 166° |
| 2026-05-05 01:18 | 34.76032 | -119.18896 | 33617 ft | 430 kts | 166° |
| 2026-05-05 01:18 | 34.73292 | -119.17406 | 32832 ft | 433 kts | 165° |
| 2026-05-05 01:19 | 34.70587 | -119.15774 | 32069 ft | 436 kts | 162° |
| 2026-05-05 01:19 | 34.67900 | -119.14042 | 31291 ft | 439 kts | 162° |
| 2026-05-05 01:19 | 34.65196 | -119.12271 | 30404 ft | 442 kts | 162° |
| 2026-05-05 01:19 | 34.62473 | -119.10506 | 29323 ft | 446 kts | 162° |
| 2026-05-05 01:20 | 34.59756 | -119.08771 | 28379 ft | 447 kts | 161° |
| 2026-05-05 01:20 | 34.57040 | -119.07040 | 28111 ft | 439 kts | 161° |
| 2026-05-05 01:20 | 34.54289 | -119.05277 | 27383 ft | 450 kts | 161° |
| 2026-05-05 01:20 | 34.51526 | -119.03484 | 26818 ft | 447 kts | 160° |
| 2026-05-05 01:21 | 34.48814 | -119.01714 | 26298 ft | 438 kts | 160° |
| 2026-05-05 01:21 | 34.46156 | -118.99988 | 25808 ft | 430 kts | 160° |
| 2026-05-05 01:21 | 34.43541 | -118.98292 | 25334 ft | 423 kts | 160° |
| 2026-05-05 01:21 | 34.40978 | -118.96602 | 24863 ft | 417 kts | 159° |
| 2026-05-05 01:22 | 34.38483 | -118.94943 | 24404 ft | 411 kts | 159° |
| 2026-05-05 01:22 | 34.35996 | -118.93286 | 23952 ft | 406 kts | 159° |
| 2026-05-05 01:22 | 34.33534 | -118.91649 | 23468 ft | 401 kts | 159° |
| 2026-05-05 01:22 | 34.31110 | -118.90038 | 22954 ft | 397 kts | 159° |
| 2026-05-05 01:23 | 34.28701 | -118.88437 | 22476 ft | 391 kts | 159° |
| 2026-05-05 01:23 | 34.26328 | -118.86866 | 22037 ft | 385 kts | 159° |
| 2026-05-05 01:23 | 34.23991 | -118.85322 | 21586 ft | 382 kts | 158° |
| 2026-05-05 01:23 | 34.21625 | -118.83932 | 21158 ft | 374 kts | 166° |
| 2026-05-05 01:24 | 34.19191 | -118.82928 | 20746 ft | 366 kts | 169° |
| 2026-05-05 01:24 | 34.16763 | -118.82056 | 20332 ft | 362 kts | 169° |
| 2026-05-05 01:24 | 34.14359 | -118.81184 | 19927 ft | 360 kts | 169° |
| 2026-05-05 01:24 | 34.12006 | -118.80288 | 19528 ft | 357 kts | 168° |
| 2026-05-05 01:25 | 34.09650 | -118.79366 | 19131 ft | 355 kts | 167° |
| 2026-05-05 01:25 | 34.07301 | -118.78438 | 18726 ft | 353 kts | 167° |
| 2026-05-05 01:25 | 34.04970 | -118.77529 | 18330 ft | 351 kts | 167° |
| 2026-05-05 01:25 | 34.02679 | -118.76644 | 17894 ft | 350 kts | 167° |
| 2026-05-05 01:26 | 34.00372 | -118.75752 | 17458 ft | 348 kts | 167° |
| 2026-05-05 01:26 | 33.98072 | -118.74861 | 17061 ft | 346 kts | 167° |
| 2026-05-05 01:26 | 33.95790 | -118.73976 | 16666 ft | 344 kts | 167° |
| 2026-05-05 01:26 | 33.93514 | -118.73096 | 16279 ft | 342 kts | 167° |
| 2026-05-05 01:27 | 33.91253 | -118.72225 | 15892 ft | 341 kts | 167° |
| 2026-05-05 01:27 | 33.88995 | -118.71352 | 15508 ft | 341 kts | 167° |
| 2026-05-05 01:27 | 33.86746 | -118.70487 | 15127 ft | 341 kts | 166° |
| 2026-05-05 01:27 | 33.84483 | -118.69614 | 14745 ft | 341 kts | 166° |
| 2026-05-05 01:28 | 33.82221 | -118.68739 | 14358 ft | 342 kts | 166° |
| 2026-05-05 01:28 | 33.79987 | -118.67876 | 13980 ft | 342 kts | 166° |
| 2026-05-05 01:28 | 33.78449 | -118.67283 | 13703 ft | 342 kts | 166° |
| 2026-05-05 01:28 | 33.76343 | -118.66473 | 13300 ft | 342 kts | 166° |
| 2026-05-05 01:29 | 33.74027 | -118.65657 | 12904 ft | 339 kts | 172° |
| 2026-05-05 01:29 | 33.71720 | -118.65282 | 12571 ft | 332 kts | 179° |
| 2026-05-05 01:29 | 33.69436 | -118.65064 | 12244 ft | 326 kts | 179° |
| 2026-05-05 01:29 | 33.67193 | -118.64836 | 11914 ft | 321 kts | 178° |
| 2026-05-05 01:30 | 33.64976 | -118.64579 | 11598 ft | 319 kts | 178° |
| 2026-05-05 01:30 | 33.62775 | -118.64307 | 11297 ft | 316 kts | 176° |
| 2026-05-05 01:30 | 33.60681 | -118.63558 | 10970 ft | 318 kts | 155° |
| 2026-05-05 01:30 | 33.58967 | -118.61955 | 10689 ft | 318 kts | 135° |
| 2026-05-05 01:31 | 33.57776 | -118.59761 | 10388 ft | 310 kts | 122° |
| 2026-05-05 01:31 | 33.56806 | -118.57493 | 10066 ft | 300 kts | 120° |
| 2026-05-05 01:31 | 33.55901 | -118.55316 | 9944 ft | 285 kts | 120° |
| 2026-05-05 01:31 | 33.54995 | -118.53171 | 9514 ft | 287 kts | 121° |
| 2026-05-05 01:32 | 33.54085 | -118.51049 | 9204 ft | 285 kts | 121° |
| 2026-05-05 01:32 | 33.53176 | -118.48946 | 8913 ft | 283 kts | 121° |
| 2026-05-05 01:32 | 33.52316 | -118.46835 | 8602 ft | 282 kts | 110° |
| 2026-05-05 01:32 | 33.52064 | -118.44510 | 8376 ft | 281 kts | 94° |
| 2026-05-05 01:33 | 33.52018 | -118.42200 | 8094 ft | 281 kts | 93° |
| 2026-05-05 01:33 | 33.51971 | -118.39863 | 7809 ft | 281 kts | 93° |
| 2026-05-05 01:33 | 33.51916 | -118.37531 | 7532 ft | 280 kts | 93° |
| 2026-05-05 01:33 | 33.51856 | -118.35196 | 7251 ft | 280 kts | 93° |
| 2026-05-05 01:34 | 33.51912 | -118.32875 | 6947 ft | 280 kts | 78° |
| 2026-05-05 01:34 | 33.52543 | -118.30691 | 6734 ft | 275 kts | 68° |
| 2026-05-05 01:34 | 33.53251 | -118.28563 | 6447 ft | 274 kts | 68° |
| 2026-05-05 01:34 | 33.53954 | -118.26440 | 6156 ft | 273 kts | 68° |
| 2026-05-05 01:35 | 33.54644 | -118.24327 | 5862 ft | 269 kts | 69° |
| 2026-05-05 01:35 | 33.55309 | -118.22261 | 5575 ft | 262 kts | 69° |
| 2026-05-05 01:35 | 33.55943 | -118.20276 | 5316 ft | 255 kts | 69° |
| 2026-05-05 01:35 | 33.56564 | -118.18323 | 5044 ft | 247 kts | 69° |
| 2026-05-05 01:36 | 33.57171 | -118.16437 | 4844 ft | 238 kts | 69° |
| 2026-05-05 01:36 | 33.57756 | -118.14618 | 4655 ft | 231 kts | 69° |
| 2026-05-05 01:36 | 33.58326 | -118.12838 | 4487 ft | 228 kts | 69° |
| 2026-05-05 01:36 | 33.58895 | -118.11059 | 4323 ft | 229 kts | 69° |
| 2026-05-05 01:37 | 33.59466 | -118.09271 | 4152 ft | 230 kts | 69° |
| 2026-05-05 01:37 | 33.60250 | -118.07623 | 4036 ft | 229 kts | 42° |
| 2026-05-05 01:37 | 33.61485 | -118.06459 | 4046 ft | 226 kts | 33° |
| 2026-05-05 01:37 | 33.62786 | -118.05415 | 4039 ft | 225 kts | 30° |
| 2026-05-05 01:38 | 33.64153 | -118.04440 | 3834 ft | 231 kts | 28° |
| 2026-05-05 01:38 | 33.65533 | -118.03473 | 3679 ft | 229 kts | 29° |
| 2026-05-05 01:38 | 33.66894 | -118.02508 | 3528 ft | 225 kts | 30° |
| 2026-05-05 01:38 | 33.68226 | -118.01596 | 3374 ft | 222 kts | 20° |
| 2026-05-05 01:39 | 33.69726 | -118.01405 | 3229 ft | 211 kts | 343° |
| 2026-05-05 01:39 | 33.70975 | -118.02111 | 3143 ft | 195 kts | 319° |
| 2026-05-05 01:39 | 33.71941 | -118.03172 | 3043 ft | 183 kts | 313° |
| 2026-05-05 01:39 | 33.72811 | -118.04204 | 2971 ft | 171 kts | 317° |
| 2026-05-05 01:40 | 33.73903 | -118.04810 | 2988 ft | 175 kts | 340° |
| 2026-05-05 01:40 | 33.75055 | -118.05255 | 2975 ft | 172 kts | 339° |
| 2026-05-05 01:40 | 33.76193 | -118.05709 | 2884 ft | 176 kts | 339° |
| 2026-05-05 01:40 | 33.77448 | -118.06217 | 2149 ft | 201 kts | 338° |
| 2026-05-05 01:41 | 33.78800 | -118.06764 | 1482 ft | 205 kts | 338° |
| 2026-05-05 01:41 | 33.80098 | -118.07272 | 1230 ft | 187 kts | 340° |
| 2026-05-05 01:41 | 33.81261 | -118.07765 | 1091 ft | 165 kts | 328° |
| 2026-05-05 01:41 | 33.81938 | -118.08671 | 1045 ft | 143 kts | 300° |
| 2026-05-05 01:42 | 33.82319 | -118.09795 | 825 ft | 146 kts | 270° |
| 2026-05-05 01:42 | 33.82257 | -118.10982 | 681 ft | 145 kts | 278° |
| 2026-05-05 01:42 | 33.82261 | -118.12175 | 480 ft | 141 kts | 265° |
| 2026-05-05 01:42 | 33.82238 | -118.13361 | 369 ft | 148 kts | 274° |
| 2026-05-05 01:43 | 33.82261 | -118.14579 | 97 ft | 141 kts | 272° |
| 2026-05-05 01:43 | 33.82276 | -118.15611 | 43 ft | 75 kts | 271° |
| 2026-05-05 01:43 | 33.82277 | -118.16083 | 47 ft | 34 kts | 270° |
| 2026-05-05 01:43 | 33.82275 | -118.16246 | 50 ft | 18 kts | 268° |
| 2026-05-05 01:44 | 33.82268 | -118.16352 | 48 ft | 9 kts | 300° |